Data for 10/27/2008

Time Sea-Level Adjusted Pressure Absolute Pressure Temperature Relative Humidity Dew Point   
(mb) (inHg) (mb) (inHg) (C) (F) (%) (C) (F)
00:05 1032 30.47 862 25.45 0.1 32.2 43 -11 12.2
00:10 1032 30.47 862 25.45 0.1 32.1 45 -10.5 13.1
00:15 1032 30.47 862 25.45 -0.1 31.9 47 -10.1 13.9
00:20 1032 30.47 862 25.45 -0.3 31.4 45 -10.8 12.6
00:25 1032 30.47 862 25.45 -0.7 30.8 44 -11.5 11.3
00:30 1032 30.47 862 25.45 0.3 32.5 42 -11.4 11.6
00:35 1032 30.47 862 25.45 0.1 32.1 45 -10.4 13.3
00:40 1032 30.47 862 25.45 -0.1 31.8 42 -11.5 11.3
00:45 1032 30.47 862 25.45 0.6 33.1 41 -11.3 11.7
00:50 1032 30.47 862 25.45 0.7 33.2 40 -11.4 11.5
00:55 1032 30.47 862 25.45 0.7 33.3 41 -11.1 12.1
01:00 1032 30.47 862 25.45 0.2 32.4 44 -10.8 12.6
01:05 1032 30.47 861 25.43 0.2 32.4 43 -11 12.1
01:10 1032 30.47 861 25.43 0.3 32.5 43 -11 12.2
01:15 1032 30.47 861 25.43 0.3 32.5 42 -11.2 11.8
01:20 1032 30.47 861 25.43 0.2 32.3 44 -10.7 12.7
01:25 1032 30.47 861 25.43 0.1 32.2 44 -10.8 12.6
01:30 1032 30.47 861 25.43 0.1 32.2 44 -10.7 12.8
01:35 1032 30.47 861 25.43 0.1 32.2 44 -10.8 12.6
01:40 1032 30.47 861 25.43 -0 32 45 -10.6 12.8
01:45 1032 30.47 861 25.43 -0.1 31.9 44 -10.8 12.6
01:50 1032 30.47 861 25.43 0.2 32.3 44 -10.8 12.5
01:55 1032 30.47 861 25.43 0.4 32.7 44 -10.5 13.1
02:00 1032 30.47 861 25.43 0.5 32.9 43 -10.7 12.7
02:05 1032 30.47 861 25.43 0.6 33 44 -10.4 13.3
02:10 1032 30.47 861 25.43 0.7 33.2 43 -10.6 12.9
02:15 1032 30.47 861 25.43 0.8 33.4 42 -10.6 12.9
02:20 1032 30.47 861 25.43 0.6 33.1 43 -10.5 13.1
02:25 1032 30.47 861 25.43 0.4 32.7 45 -10.4 13.3
02:30 1032 30.47 861 25.43 0.1 32.2 47 -10 14
02:35 1032 30.47 861 25.43 0 32.1 47 -9.9 14.2
02:40 1032 30.47 861 25.43 -0.1 31.7 48 -9.8 14.3
02:45 1032 30.47 861 25.43 -0.6 31 49 -10.1 13.9
02:50 1032 30.47 861 25.43 -0.4 31.2 46 -10.7 12.7
02:55 1032 30.47 861 25.43 -0.1 31.9 44 -11 12.3
03:00 1032 30.47 861 25.43 0.3 32.6 42 -11.3 11.7
03:05 1031 30.45 861 25.43 0.7 33.3 40 -11.4 11.4
03:10 1031 30.45 861 25.43 0.8 33.4 40 -11.2 11.9
03:15 1031 30.45 861 25.43 0.8 33.5 40 -11.3 11.6
03:20 1031 30.45 861 25.43 0.9 33.6 41 -11 12.2
03:25 1031 30.45 861 25.43 0.7 33.2 42 -11 12.3
03:30 1031 30.45 861 25.43 0.5 33 44 -10.3 13.5
03:35 1031 30.45 861 25.43 0.5 32.8 45 -10 14
03:40 1031 30.45 861 25.43 0.2 32.4 47 -9.8 14.4
03:45 1031 30.45 861 25.43 -0.2 31.6 49 -9.7 14.5
03:50 1031 30.45 860 25.4 -0.1 31.8 47 -10 13.9
03:55 1031 30.45 860 25.4 0.1 32.2 47 -9.8 14.3
04:00 1031 30.45 860 25.4 0.1 32.2 46 -10.1 13.8
04:05 1031 30.45 860 25.4 0.2 32.4 46 -10.2 13.6
04:10 1031 30.45 860 25.4 0.2 32.4 47 -9.9 14.3
04:15 1031 30.45 860 25.4 0.1 32.2 47 -9.8 14.4
04:20 1031 30.45 860 25.4 -0.1 31.8 47 -10 14
04:25 1031 30.45 860 25.4 -0.3 31.5 48 -10.1 13.8
04:30 1031 30.45 860 25.4 -0.2 31.7 48 -10 14
04:35 1031 30.45 860 25.4 -0 32 47 -10 14
04:40 1031 30.45 860 25.4 0 32.1 49 -9.4 15
04:45 1031 30.45 860 25.4 -0.4 31.4 50 -9.4 15
04:50 1031 30.45 860 25.4 -0.7 30.7 51 -9.7 14.6
04:55 1031 30.45 860 25.4 -0.9 30.3 48 -10.5 13
05:00 1031 30.45 860 25.4 -0.8 30.6 49 -10.3 13.4
05:05 1031 30.45 860 25.4 -0.7 30.7 48 -10.4 13.2
05:10 1031 30.45 860 25.4 -0.4 31.3 47 -10.3 13.5
05:15 1031 30.45 860 25.4 -0.2 31.6 46 -10.6 13
05:20 1031 30.45 860 25.4 -0.1 31.8 46 -10.4 13.2
05:25 1031 30.45 860 25.4 -0 32 45 -10.6 12.9
05:30 1031 30.45 860 25.4 -0.2 31.6 48 -10 14
05:35 1031 30.45 860 25.4 -0.9 30.5 50 -10.1 13.9
05:40 1031 30.45 860 25.4 -0.9 30.3 49 -10.3 13.4
05:45 1031 30.45 860 25.4 -0.8 30.6 48 -10.5 13.2
05:50 1031 30.45 860 25.4 -0.6 30.8 50 -9.7 14.5
05:55 1031 30.45 860 25.4 -0.7 30.7 51 -9.6 14.7
06:00 1031 30.45 860 25.4 -0.6 30.9 50 -9.7 14.5
06:05 1031 30.45 860 25.4 -0.8 30.6 54 -8.9 15.9
06:10 1031 30.45 860 25.4 -1.2 29.9 55 -9.1 15.7
06:15 1031 30.45 860 25.4 -1.1 30 56 -8.7 16.3
06:20 1031 30.45 860 25.4 -1.6 29.1 58 -8.9 16
06:25 1031 30.45 860 25.4 -1.9 28.6 58 -9.1 15.7
06:30 1031 30.45 860 25.4 -1.9 28.5 59 -9 15.8
06:35 1031 30.45 860 25.4 -1.7 28.9 58 -9 15.9
06:40 1031 30.45 860 25.4 -1.6 29.1 56 -9.2 15.4
06:45 1030 30.42 860 25.4 -1.2 29.8 54 -9.5 14.9
06:50 1030 30.42 860 25.4 -1 30.2 50 -10.2 13.7
06:55 1030 30.42 860 25.4 -0.8 30.6 49 -10.3 13.5
07:00 1031 30.45 860 25.4 -0.5 31.1 51 -9.4 15
07:05 1031 30.45 860 25.4 -0.6 30.9 52 -9.3 15.2
07:10 1031 30.45 860 25.4 -0.9 30.4 52 -9.5 14.9
07:15 1030 30.42 860 25.4 -0.8 30.6 54 -9.1 15.7
07:20 1030 30.42 860 25.4 -1 30.2 52 -9.6 14.7
07:25 1031 30.45 860 25.4 -0.9 30.3 51 -9.9 14.1
07:30 1030 30.42 860 25.4 -0.9 30.4 51 -9.9 14.2
07:35 1030 30.42 860 25.4 -0.9 30.3 51 -9.8 14.3
07:40 1030 30.42 860 25.4 -1 30.2 51 -10 14
07:45 1030 30.42 860 25.4 -0.9 30.4 51 -9.8 14.4
07:50 1030 30.42 860 25.4 -1.2 29.8 54 -9.4 15
07:55 1030 30.42 860 25.4 -1.5 29.3 53 -10 14.1
08:00 1030 30.42 860 25.4 -1.2 29.8 51 -10 14
08:05 1030 30.42 860 25.4 -1 30.2 51 -9.9 14.2
08:10 1030 30.42 860 25.4 -1 30.1 51 -9.9 14.2
08:15 1030 30.42 860 25.4 -1 30.3 50 -10.1 13.8
08:20 1030 30.42 860 25.4 -0.8 30.6 50 -10 14
08:25 1030 30.42 860 25.4 -0.7 30.8 49 -10.2 13.7
08:30 1030 30.42 860 25.4 -0.5 31.1 48 -10.3 13.5
08:35 1031 30.45 860 25.4 -0.3 31.5 47 -10.2 13.6
08:40 1030 30.42 860 25.4 -0.1 31.8 47 -10.1 13.9
08:45 1031 30.45 860 25.4 -0.3 31.5 47 -10.2 13.6
08:50 1031 30.45 860 25.4 -0.2 31.7 47 -10.1 13.8
08:55 1031 30.45 860 25.4 0.4 32.7 45 -10.3 13.5
09:00 1031 30.45 860 25.4 1 33.7 42 -10.5 13.1
09:05 1031 30.45 860 25.4 1.7 35 39 -10.9 12.4
09:10 1031 30.45 860 25.4 2.2 35.9 38 -10.7 12.8
09:15 1031 30.45 860 25.4 2.2 36 41 -9.8 14.3
09:20 1031 30.45 860 25.4 2.3 36.1 42 -9.4 15
09:25 1031 30.45 860 25.4 2.8 37.1 40 -9.5 14.9
09:30 1031 30.45 860 25.4 3.5 38.4 39 -9 15.8
09:35 1031 30.45 860 25.4 3.5 38.4 39 -9 15.8
09:40 1031 30.45 860 25.4 3.9 39 37 -9.4 15.2
09:45 1031 30.45 860 25.4 4 39.1 37 -9.3 15.3
09:50 1031 30.45 860 25.4 4.3 39.8 37 -9.1 15.6
09:55 1031 30.45 860 25.4 4.8 40.6 35 -9.5 15
10:00 1031 30.45 860 25.4 4.7 40.5 34 -9.7 14.6
10:05 1031 30.45 860 25.4 4.9 40.8 34 -9.5 14.9
10:10 1031 30.45 860 25.4 4.7 40.5 35 -9.6 14.7
10:15 1031 30.45 860 25.4 5.1 41.1 33 -9.8 14.4
10:20 1031 30.45 860 25.4 4.7 40.5 35 -9.3 15.2
10:25 1031 30.45 860 25.4 4.8 40.6 34 -9.9 14.1
10:30 1031 30.45 860 25.4 5.1 41.2 33 -10 14.1
10:35 1031 30.45 860 25.4 5 41.1 32 -10.2 13.7
10:40 1031 30.45 860 25.4 5.5 41.9 32 -10.1 13.8
10:45 1031 30.45 860 25.4 6 42.9 31 -9.9 14.1
10:50 1031 30.45 860 25.4 6.9 44.5 29 -9.9 14.1
10:55 1031 30.45 860 25.4 7.1 44.7 30 -9.5 14.9
11:00 1031 30.45 860 25.4 6.9 44.4 29 -9.9 14.1
11:05 1031 30.45 860 25.4 7.2 44.9 30 -9.1 15.6
11:10 1031 30.45 860 25.4 7.3 45.2 29 -9.7 14.5
11:15 1031 30.45 860 25.4 7.6 45.6 29 -9.4 15.1
11:20 1031 30.45 860 25.4 7.9 46.3 29 -9.1 15.7
11:25 1031 30.45 860 25.4 8.3 47 27 -9.6 14.8
11:30 1031 30.45 860 25.4 8.8 47.8 27 -9.4 15.1
11:35 1031 30.45 860 25.4 8.7 47.6 27 -9.3 15.3
11:40 1031 30.45 860 25.4 8.7 47.6 28 -8.6 16.4
11:45 1031 30.45 860 25.4 8.4 47.2 28 -9 15.7
11:50 1031 30.45 860 25.4 9 48.2 27 -9 15.8
11:55 1030 30.42 860 25.4 8.8 47.9 30 -7.7 18.2
12:00 1030 30.42 860 25.4 7.8 46 33 -7.5 18.4
12:05 1030 30.42 860 25.4 8.2 46.7 31 -7.8 17.9
12:10 1030 30.42 860 25.4 9.1 48.3 29 -8 17.6
12:15 1030 30.42 860 25.4 9.2 48.5 27 -8.9 16
12:20 1030 30.42 859 25.37 9.8 49.6 27 -8.5 16.6
12:25 1030 30.42 859 25.37 9.8 49.6 27 -8.5 16.8
12:30 1030 30.42 859 25.37 10.4 50.7 27 -8 17.6
12:35 1030 30.42 859 25.37 10.8 51.4 26 -8.1 17.4
12:40 1030 30.42 859 25.37 10.9 51.7 26 -8 17.5
12:45 1030 30.42 859 25.37 11.3 52.4 26 -7.6 18.3
12:50 1030 30.42 859 25.37 11.3 52.3 25 -7.8 17.9
12:55 1030 30.42 859 25.37 11.7 53 25 -7.8 17.9
13:00 1030 30.42 859 25.37 11.9 53.4 24 -8.1 17.4
13:05 1030 30.42 859 25.37 12.4 54.3 22 -8.4 16.8
13:10 1030 30.42 859 25.37 12.5 54.5 22 -8.3 17
13:15 1030 30.42 859 25.37 12.4 54.2 23 -8.4 16.9
13:20 1029 30.39 859 25.37 12.3 54.2 22 -8.8 16.2
13:25 1029 30.39 859 25.37 13.2 55.7 20 -9.5 14.9
13:30 1029 30.39 859 25.37 13.1 55.6 20 -9.4 15.1
13:35 1029 30.39 859 25.37 11.9 53.5 22 -9.2 15.4
13:40 1029 30.39 858 25.34 12.5 54.5 21 -9.5 14.9
13:45 1029 30.39 858 25.34 13.2 55.7 20 -9.4 15.1
13:50 1029 30.39 858 25.34 13.7 56.7 19 -9.7 14.5
13:55 1029 30.39 858 25.34 14 57.3 19 -9.5 14.9
14:00 1029 30.39 858 25.34 13.8 56.8 19 -9.6 14.7
14:05 1029 30.39 858 25.34 12.2 53.9 21 -9.8 14.4
14:10 1029 30.39 858 25.34 13.2 55.7 19 -9.8 14.3
14:15 1029 30.39 858 25.34 12.5 54.5 21 -9.1 15.7
14:20 1029 30.39 858 25.34 12.7 54.9 20 -9.4 15.1
14:25 1029 30.39 858 25.34 13.7 56.6 19 -9.6 14.8
14:30 1029 30.39 858 25.34 14.6 58.4 17 -9.8 14.3
14:35 1029 30.39 858 25.34 15 59.1 18 -9.3 15.3
14:40 1029 30.39 858 25.34 14.8 58.7 18 -9.6 14.7
14:45 1029 30.39 858 25.34 14.6 58.4 18 -9.5 14.9
14:50 1029 30.39 858 25.34 14.4 58 18 -9.2 15.4
14:55 1029 30.39 858 25.34 14.5 58 17 -10 14
15:00 1029 30.39 858 25.34 15.3 59.5 17 -9.4 15.2
15:05 1029 30.39 858 25.34 15 59 18 -9.3 15.3
15:10 1029 30.39 858 25.34 15.3 59.5 18 -9 15.8
15:15 1029 30.39 858 25.34 15.4 59.8 18 -8.7 16.3
15:20 1029 30.39 858 25.34 15.7 60.2 17 -9 15.8
15:25 1029 30.39 858 25.34 16.2 61.1 17 -8.6 16.4
15:30 1029 30.39 858 25.34 16.2 61.1 17 -8.5 16.6
15:35 1029 30.39 858 25.34 16.1 61 17 -8.8 16.2
15:40 1029 30.39 858 25.34 16.3 61.3 17 -8.8 16.2
15:45 1029 30.39 858 25.34 16.4 61.6 17 -8.7 16.3
15:50 1028 30.36 858 25.34 15.3 59.5 18 -8.5 16.7
15:55 1028 30.36 858 25.34 15.5 59.8 18 -8.8 16.2
16:00 1028 30.36 858 25.34 15.9 60.5 18 -8.5 16.8
16:05 1028 30.36 858 25.34 15.8 60.4 18 -8.2 17.3
16:10 1028 30.36 858 25.34 16 60.8 18 -8.5 16.7
16:15 1028 30.36 858 25.34 16.2 61.1 18 -8.4 16.8
16:20 1028 30.36 858 25.34 16.3 61.3 18 -7.9 17.7
16:25 1028 30.36 858 25.34 16 60.9 18 -8.4 16.9
16:30 1028 30.36 858 25.34 16.7 62 17 -8.5 16.8
16:35 1028 30.36 858 25.34 16.8 62.2 17 -8 17.6
16:40 1028 30.36 857 25.31 16.5 61.7 17 -8.2 17.2
16:45 1028 30.36 857 25.31 16.6 61.9 18 -8 17.5
16:50 1028 30.36 857 25.31 16.8 62.2 17 -8.3 17
16:55 1028 30.36 857 25.31 16.8 62.2 18 -7.8 18
17:00 1028 30.36 857 25.31 16.2 61.2 18 -7.9 17.8
17:05 1028 30.36 857 25.31 15.9 60.7 19 -7.4 18.7
17:10 1028 30.36 857 25.31 15.3 59.6 20 -7.7 18.1
17:15 1028 30.36 857 25.31 15.3 59.5 19 -8.1 17.5
17:20 1028 30.36 857 25.31 15.7 60.2 19 -7.7 18.1
17:25 1028 30.36 857 25.31 15.7 60.2 19 -7.8 18
17:30 1028 30.36 857 25.31 15.5 60 20 -7.5 18.5
17:35 1028 30.36 857 25.31 15.2 59.4 20 -7.7 18.1
17:40 1028 30.36 857 25.31 15.2 59.3 20 -7.7 18.1
17:45 1028 30.36 857 25.31 15.3 59.6 20 -7.7 18.1
17:50 1028 30.36 857 25.31 15.4 59.8 20 -7.5 18.5
17:55 1028 30.36 857 25.31 15.5 59.9 20 -7.4 18.7
18:00 1028 30.36 857 25.31 15.6 60 20 -7 19.4
18:05 1028 30.36 857 25.31 15.5 59.8 21 -6.8 19.8
18:10 1028 30.36 857 25.31 15.1 59.3 22 -6.5 20.3
18:15 1028 30.36 857 25.31 14.3 57.7 23 -6.4 20.5
18:20 1028 30.36 857 25.31 13.2 55.7 24 -6.9 19.6
18:25 1028 30.36 857 25.31 12.7 54.8 24 -7.4 18.6
18:30 1028 30.36 857 25.31 12.5 54.4 26 -6.4 20.4
18:35 1028 30.36 857 25.31 11.7 53 28 -6.4 20.5
18:40 1028 30.36 857 25.31 11.3 52.4 28 -6.5 20.3
18:45 1028 30.36 857 25.31 11.3 52.3 26 -7.4 18.6
18:50 1028 30.36 857 25.31 11.4 52.5 26 -7.4 18.6
18:55 1028 30.36 857 25.31 11.2 52.1 27 -7.1 19.2
19:00 1028 30.36 857 25.31 10.6 51 28 -7.3 18.8
19:05 1028 30.36 857 25.31 10.6 51 28 -7 19.5
19:10 1028 30.36 857 25.31 10.1 50.1 29 -6.9 19.5
19:15 1028 30.36 857 25.31 9.6 49.3 31 -6.8 19.7
19:20 1028 30.36 857 25.31 9.1 48.3 32 -6.8 19.7
19:25 1028 30.36 857 25.31 9 48.1 30 -7.6 18.4
19:30 1028 30.36 857 25.31 9.4 49 30 -7.2 19
19:35 1028 30.36 857 25.31 9.7 49.4 29 -7.5 18.5
19:40 1028 30.36 857 25.31 9.6 49.2 29 -7.5 18.6
19:45 1028 30.36 857 25.31 9.4 49 28 -8 17.5
19:50 1028 30.36 857 25.31 9.6 49.2 28 -8.2 17.3
19:55 1028 30.36 857 25.31 9.4 48.9 28 -8 17.6
20:00 1028 30.36 857 25.31 9.1 48.5 29 -7.9 17.8
20:05 1028 30.36 857 25.31 8.7 47.6 30 -7.8 18
20:10 1028 30.36 857 25.31 8.1 46.7 31 -7.9 17.9
20:15 1028 30.36 857 25.31 7.9 46.1 31 -8.1 17.3
20:20 1028 30.36 857 25.31 8 46.3 30 -8.5 16.8
20:25 1028 30.36 857 25.31 8.2 46.7 30 -8.5 16.6
20:30 1028 30.36 858 25.34 8.4 47 30 -8.2 17.2
20:35 1028 30.36 858 25.34 8.3 46.9 29 -8.6 16.5
20:40 1028 30.36 858 25.34 8.5 47.3 28 -8.9 16
20:45 1028 30.36 858 25.34 9 48.2 27 -8.9 16
20:50 1028 30.36 857 25.31 9.5 49.1 26 -9 15.9
20:55 1028 30.36 857 25.31 9.6 49.3 27 -8.7 16.4
21:00 1028 30.36 858 25.34 9.6 49.3 26 -8.8 16.2
21:05 1028 30.36 858 25.34 9.4 49 27 -8.5 16.6
21:10 1028 30.36 858 25.34 9.3 48.8 28 -8.4 16.8
21:15 1028 30.36 858 25.34 8.9 47.9 29 -8 17.6
21:20 1028 30.36 858 25.34 8.3 46.9 29 -8.6 16.4
21:25 1029 30.39 858 25.34 8.4 47 29 -8.7 16.4
21:30 1028 30.36 858 25.34 8.4 47 29 -8.5 16.7
21:35 1028 30.36 858 25.34 8.1 46.5 31 -8.1 17.5
21:40 1028 30.36 858 25.34 8.1 46.5 29 -8.8 16.2
21:45 1029 30.39 858 25.34 8.2 46.8 30 -8.3 17
21:50 1029 30.39 858 25.34 8.1 46.5 30 -8.6 16.4
21:55 1029 30.39 858 25.34 8.1 46.6 29 -9 15.7
22:00 1029 30.39 858 25.34 8.5 47.3 28 -8.8 16.2
22:05 1029 30.39 858 25.34 8.5 47.3 29 -8.6 16.6
22:10 1029 30.39 858 25.34 8.4 47.1 29 -8.7 16.3
22:15 1029 30.39 858 25.34 8.3 46.9 29 -8.9 16
22:20 1029 30.39 858 25.34 8.1 46.7 30 -8.6 16.5
22:25 1029 30.39 858 25.34 7.9 46.1 31 -8.4 16.8
22:30 1029 30.39 858 25.34 7.6 45.6 31 -8.4 16.8
22:35 1029 30.39 858 25.34 7.6 45.6 30 -9 15.8
22:40 1029 30.39 858 25.34 8.2 46.7 29 -8.9 15.9
22:45 1029 30.39 858 25.34 8.5 47.3 29 -8.4 16.9
22:50 1029 30.39 858 25.34 8.4 47.1 29 -8.7 16.3
22:55 1029 30.39 858 25.34 7.9 46.2 30 -8.7 16.4
23:00 1029 30.39 858 25.34 7.8 46 30 -8.8 16.1
23:05 1029 30.39 858 25.34 7.8 46.1 31 -8.5 16.7
23:10 1029 30.39 858 25.34 7.3 45.1 32 -8.5 16.7
23:15 1029 30.39 858 25.34 7.8 46.1 30 -8.6 16.6
23:20 1029 30.39 858 25.34 8.2 46.7 30 -8.3 17.1
23:25 1029 30.39 858 25.34 7.8 46 31 -8.3 17
23:30 1029 30.39 858 25.34 7.9 46.1 30 -8.6 16.5
23:35 1029 30.39 858 25.34 8.1 46.5 33 -7.3 18.8
23:40 1029 30.39 858 25.34 7.5 45.6 35 -6.9 19.5
23:45 1029 30.39 858 25.34 7.2 45 36 -6.9 19.6
23:50 1029 30.39 858 25.34 6.9 44.3 37 -6.8 19.8
23:55 1029 30.39 858 25.34 6.4 43.6 38 -6.8 19.7
24:00 1029 30.39 858 25.34 6 42.7 37 -7.8 18